createdAt,value
2023-03-21T00:00:19.612Z,4.70
2023-03-21T00:01:18.821Z,4.40
2023-03-21T00:02:18.644Z,4.60
2023-03-21T00:03:18.746Z,4.70
2023-03-21T00:04:18.662Z,4.30
2023-03-21T00:05:18.591Z,4.40
2023-03-21T00:06:18.508Z,4.30
2023-03-21T00:07:18.577Z,4.40
2023-03-21T00:08:18.603Z,4.20
2023-03-21T00:09:18.504Z,4.20
2023-03-21T00:10:29.788Z,3.70
2023-03-21T00:11:20.527Z,4.10
2023-03-21T00:12:18.541Z,4.80
2023-03-21T00:13:18.566Z,4.40
2023-03-21T00:14:18.479Z,4.50
2023-03-21T00:15:20.566Z,4.40
2023-03-21T00:16:20.765Z,4.40
2023-03-21T00:17:19.532Z,4.60
2023-03-21T00:18:18.406Z,4.00
2023-03-21T00:19:18.479Z,4.10
2023-03-21T00:20:18.452Z,4.10
2023-03-21T00:22:20.598Z,4.30
2023-03-21T00:23:18.429Z,4.50
2023-03-21T00:24:18.357Z,4.10
2023-03-21T00:25:18.288Z,4.30
2023-03-21T00:26:18.388Z,4.30
2023-03-21T00:28:20.293Z,4.00
2023-03-21T00:29:18.324Z,4.20
2023-03-21T00:30:18.445Z,4.10
2023-03-21T00:31:18.313Z,4.10
2023-03-21T00:32:18.264Z,4.10
2023-03-21T00:33:22.615Z,4.30
2023-03-21T00:34:26.818Z,4.40
2023-03-21T00:35:53.569Z,4.30
2023-03-21T00:36:20.386Z,4.30
2023-03-21T00:37:18.421Z,4.20
2023-03-21T00:38:18.232Z,4.20
2023-03-21T00:39:18.262Z,4.30
2023-03-21T00:40:28.028Z,4.20
2023-03-21T00:41:35.214Z,4.50
2023-03-21T00:42:20.212Z,4.10
2023-03-21T00:43:18.200Z,4.00
2023-03-21T00:44:18.215Z,4.00
2023-03-21T00:45:18.093Z,4.00
2023-03-21T00:46:18.290Z,4.50
2023-03-21T00:47:18.109Z,4.10
2023-03-21T00:48:18.191Z,4.30
2023-03-21T00:49:18.895Z,4.20
2023-03-21T00:50:18.046Z,4.80
2023-03-21T00:51:18.166Z,4.40
2023-03-21T00:52:24.808Z,4.20
2023-03-21T00:53:20.045Z,4.50
2023-03-21T00:54:18.094Z,4.30
2023-03-21T00:55:18.007Z,4.80
2023-03-21T00:56:18.131Z,3.80
2023-03-21T00:57:20.193Z,3.80
2023-03-21T00:58:24.197Z,3.90
2023-03-21T01:09:03.981Z,3.80
2023-03-21T01:10:05.275Z,3.50
2023-03-21T01:11:05.218Z,4.00
2023-03-21T01:12:05.192Z,4.10
2023-03-21T01:13:05.231Z,3.80
2023-03-21T01:14:20.836Z,3.40
2023-03-21T01:15:07.161Z,3.90
2023-03-21T01:16:05.222Z,3.80
2023-03-21T01:17:05.135Z,4.00
2023-03-21T01:18:05.143Z,4.10
2023-03-21T01:19:09.181Z,4.10
2023-03-21T01:20:07.131Z,3.80
2023-03-21T01:21:05.273Z,3.90
2023-03-21T01:22:05.095Z,4.10
2023-03-21T01:23:05.041Z,3.90
2023-03-21T01:24:05.057Z,3.90
2023-03-21T01:25:21.216Z,3.90
2023-03-21T01:26:06.033Z,4.10
2023-03-21T01:27:06.056Z,4.00
2023-03-21T01:28:05.132Z,4.00
2023-03-21T01:29:05.072Z,3.70
2023-03-21T01:30:11.289Z,4.00
2023-03-21T01:31:06.083Z,3.80
2023-03-21T01:32:05.061Z,4.10
2023-03-21T01:33:05.205Z,4.00
2023-03-21T01:34:05.160Z,4.40
2023-03-21T01:35:05.505Z,3.80
2023-03-21T01:36:12.794Z,3.30
2023-03-21T01:37:07.054Z,3.70
2023-03-21T01:38:04.933Z,3.80
2023-03-21T01:39:04.957Z,3.90
2023-03-21T01:40:05.151Z,3.70
2023-03-21T01:41:17.048Z,3.90
2023-03-21T01:42:07.028Z,3.70
2023-03-21T01:43:04.944Z,3.60
2023-03-21T01:44:05.039Z,3.80
2023-03-21T01:45:04.873Z,3.70
2023-03-21T01:46:04.945Z,3.70
2023-03-21T01:47:13.053Z,3.80
2023-03-21T01:48:07.003Z,3.40
2023-03-21T01:49:04.877Z,3.90
2023-03-21T01:50:04.914Z,3.80
2023-03-21T01:51:05.109Z,3.70
2023-03-21T01:52:12.146Z,3.80
2023-03-21T01:53:06.947Z,4.20
2023-03-21T01:54:05.748Z,4.00
2023-03-21T01:55:04.712Z,3.80
2023-03-21T01:56:05.036Z,4.00
2023-03-21T01:57:04.769Z,4.30
2023-03-21T01:58:06.775Z,4.30
2023-03-21T01:59:05.815Z,3.50
2023-03-21T02:00:04.749Z,3.70
2023-03-21T02:01:04.741Z,3.60
2023-03-21T02:02:04.673Z,3.90
2023-03-21T02:03:13.748Z,4.10
2023-03-21T02:04:06.899Z,4.40
2023-03-21T02:05:04.751Z,4.20
2023-03-21T02:06:04.620Z,3.90
2023-03-21T02:07:04.674Z,3.80
2023-03-21T02:08:04.638Z,3.80
2023-03-21T02:09:04.645Z,4.20
2023-03-21T02:10:05.889Z,4.00
2023-03-21T02:11:04.785Z,3.60
2023-03-21T02:12:04.743Z,4.50
2023-03-21T02:13:04.576Z,3.80
2023-03-21T02:14:07.033Z,3.90
2023-03-21T02:15:05.524Z,3.90
2023-03-21T02:16:04.572Z,3.70
2023-03-21T02:17:04.859Z,4.10
2023-03-21T02:18:04.574Z,3.90
2023-03-21T02:19:04.715Z,4.00
2023-03-21T02:20:04.477Z,4.10
2023-03-21T02:21:04.652Z,3.90
2023-03-21T02:22:04.501Z,3.80
2023-03-21T02:23:04.565Z,3.80
2023-03-21T02:24:04.442Z,3.40
2023-03-21T02:25:10.785Z,4.10
2023-03-21T02:26:05.490Z,4.20
2023-03-21T02:27:04.897Z,4.60
2023-03-21T02:28:05.391Z,3.90
2023-03-21T02:29:04.496Z,4.00
2023-03-21T02:30:04.451Z,4.00
2023-03-21T02:31:04.399Z,3.80
2023-03-21T02:32:17.922Z,4.00
2023-03-21T02:33:06.366Z,4.20
2023-03-21T02:34:04.373Z,4.00
2023-03-21T02:35:04.316Z,3.90
2023-03-21T02:36:13.584Z,3.90
2023-03-21T02:37:06.324Z,4.00
2023-03-21T02:38:04.324Z,4.00
2023-03-21T02:39:04.412Z,3.90
2023-03-21T02:40:04.378Z,4.00
2023-03-21T02:41:13.029Z,3.90
2023-03-21T02:42:05.271Z,3.90
2023-03-21T02:43:05.614Z,3.90
2023-03-21T02:44:05.945Z,4.20
2023-03-21T02:45:04.315Z,3.80
2023-03-21T02:46:04.282Z,4.00
2023-03-21T02:47:06.388Z,4.30
2023-03-21T02:48:06.845Z,4.20
2023-03-21T02:49:04.448Z,4.00
2023-03-21T02:50:04.166Z,4.30
2023-03-21T02:51:04.171Z,4.20
2023-03-21T02:52:14.536Z,4.00
2023-03-21T02:53:06.180Z,4.20
2023-03-21T02:54:26.398Z,4.00
2023-03-21T02:55:06.177Z,4.10
2023-03-21T02:56:04.291Z,4.20
2023-03-21T02:57:04.101Z,4.20
2023-03-21T02:58:12.849Z,4.10
2023-03-21T02:59:06.168Z,4.00
2023-03-21T03:00:15.504Z,4.20
2023-03-21T03:01:06.218Z,4.10
2023-03-21T03:02:04.128Z,4.30
2023-03-21T03:03:10.021Z,3.80
2023-03-21T03:04:06.163Z,4.00
2023-03-21T03:05:11.595Z,4.10
2023-03-21T03:06:05.104Z,4.20
2023-03-21T03:07:04.019Z,3.90
2023-03-21T03:08:04.001Z,4.20
2023-03-21T03:09:04.037Z,3.90
2023-03-21T03:10:04.236Z,4.00
2023-03-21T03:11:04.045Z,4.30
2023-03-21T03:12:04.114Z,3.90
2023-03-21T03:13:03.954Z,3.70
2023-03-21T03:14:21.048Z,4.20
2023-03-21T03:15:05.942Z,4.10
2023-03-21T03:16:04.055Z,4.10
2023-03-21T03:17:04.581Z,4.00
2023-03-21T03:18:04.119Z,4.10
2023-03-21T03:19:04.153Z,4.10
2023-03-21T03:20:15.539Z,3.90
2023-03-21T03:21:05.921Z,4.00
2023-03-21T03:22:03.893Z,3.80
2023-03-21T03:23:03.979Z,4.00
2023-03-21T03:24:04.139Z,4.10
2023-03-21T03:25:17.705Z,4.20
2023-03-21T03:26:06.237Z,3.60
2023-03-21T03:27:03.839Z,4.60
2023-03-21T03:28:04.235Z,4.10
2023-03-21T03:29:03.948Z,4.10
2023-03-21T03:30:03.918Z,4.10
2023-03-21T03:31:09.535Z,3.90
2023-03-21T03:32:06.046Z,4.50
2023-03-21T03:33:03.910Z,4.20
2023-03-21T03:34:03.847Z,3.50
2023-03-21T03:35:03.789Z,3.60
2023-03-21T03:36:06.432Z,3.90
2023-03-21T03:37:05.011Z,4.70
2023-03-21T03:38:03.896Z,3.90
2023-03-21T03:39:03.798Z,3.90
2023-03-21T03:40:05.011Z,3.70
2023-03-21T03:41:03.799Z,3.80
2023-03-21T03:42:15.463Z,4.60
2023-03-21T03:43:05.814Z,4.00
2023-03-21T03:44:03.685Z,3.90
2023-03-21T03:45:03.619Z,3.90
2023-03-21T03:46:03.808Z,4.30
2023-03-21T03:47:04.196Z,4.10
2023-03-21T03:48:03.699Z,3.90
2023-03-21T03:49:04.477Z,4.10
2023-03-21T03:50:03.624Z,3.70
2023-03-21T03:51:03.930Z,4.00
2023-03-21T03:52:03.636Z,3.80
2023-03-21T03:53:09.788Z,3.80
2023-03-21T03:54:05.568Z,4.00
2023-03-21T03:55:03.647Z,3.30
2023-03-21T03:56:03.876Z,3.60
2023-03-21T03:57:03.630Z,4.00
2023-03-21T03:58:06.421Z,4.00
2023-03-21T03:59:04.609Z,3.90
2023-03-21T04:00:03.498Z,3.80
2023-03-21T04:01:04.191Z,3.60
2023-03-21T04:02:03.498Z,4.20
2023-03-21T04:03:03.781Z,3.50
2023-03-21T04:04:12.698Z,3.90
2023-03-21T04:05:03.531Z,3.80
2023-03-21T04:06:03.488Z,4.30
2023-03-21T04:07:03.508Z,4.00
2023-03-21T04:08:03.760Z,3.90
2023-03-21T04:09:07.893Z,3.70
2023-03-21T04:10:05.424Z,3.80
2023-03-21T04:11:03.391Z,3.90
2023-03-21T04:12:03.550Z,3.60
2023-03-21T04:13:03.452Z,3.70
2023-03-21T04:14:03.439Z,3.60
2023-03-21T04:15:09.970Z,3.80
2023-03-21T04:16:04.492Z,4.10
2023-03-21T04:17:03.447Z,3.80
2023-03-21T04:18:03.474Z,4.00
2023-03-21T04:19:03.274Z,4.30
2023-03-21T04:20:11.554Z,4.30
2023-03-21T04:46:28.320Z,3.80
2023-03-21T04:47:29.587Z,3.80
2023-03-21T04:48:29.740Z,3.50
2023-03-21T04:49:29.547Z,3.90
2023-03-21T04:50:29.434Z,3.70
2023-03-21T04:51:29.492Z,4.40
2023-03-21T04:52:29.457Z,3.70
2023-03-21T04:53:29.449Z,3.80
2023-03-21T04:54:29.412Z,3.60
2023-03-21T04:55:29.411Z,3.50
2023-03-21T04:56:29.401Z,3.80
2023-03-21T04:57:29.392Z,3.70
2023-03-21T04:58:29.395Z,3.60
2023-03-21T04:59:29.359Z,3.70
2023-03-21T05:00:29.331Z,3.70
2023-03-21T05:01:29.425Z,3.80
2023-03-21T05:02:29.357Z,3.80
2023-03-21T05:03:29.409Z,4.10
2023-03-21T05:04:29.345Z,3.30
2023-03-21T05:05:29.342Z,3.60
2023-03-21T05:06:29.294Z,3.50
2023-03-21T05:07:29.291Z,3.60
2023-03-21T05:08:29.302Z,3.50
2023-03-21T05:09:29.258Z,3.50
2023-03-21T05:10:29.272Z,3.40
2023-03-21T05:11:29.244Z,3.50
2023-03-21T05:12:29.237Z,3.60
2023-03-21T05:13:29.271Z,3.60
2023-03-21T05:14:29.332Z,3.70
2023-03-21T05:15:29.222Z,3.70
2023-03-21T05:16:29.294Z,3.60
2023-03-21T05:17:29.229Z,3.50
2023-03-21T05:18:29.178Z,3.20
2023-03-21T05:19:29.162Z,3.30
2023-03-21T05:20:29.132Z,3.10
2023-03-21T05:21:29.171Z,3.90
2023-03-21T05:22:29.197Z,3.80
2023-03-21T05:23:29.135Z,3.90
2023-03-21T05:24:29.131Z,3.30
2023-03-21T05:25:29.126Z,3.50
2023-03-21T05:26:29.140Z,3.50
2023-03-21T05:27:29.086Z,3.30
2023-03-21T05:28:29.099Z,3.50
2023-03-21T05:29:29.086Z,3.20
2023-03-21T05:30:29.052Z,3.70
2023-03-21T05:31:29.057Z,3.90
2023-03-21T05:32:29.072Z,3.80
2023-03-21T05:33:29.118Z,3.40
2023-03-21T05:34:29.022Z,3.30
2023-03-21T05:35:29.030Z,3.50
2023-03-21T05:36:29.034Z,3.30
2023-03-21T05:37:29.194Z,3.60
2023-03-21T05:38:29.023Z,3.80
2023-03-21T05:39:29.009Z,3.30
2023-03-21T05:40:28.945Z,3.50
2023-03-21T05:41:28.943Z,3.50
2023-03-21T05:42:28.988Z,4.00
2023-03-21T05:43:28.969Z,3.60
2023-03-21T05:44:28.957Z,3.40
2023-03-21T05:45:28.906Z,3.70
2023-03-21T05:46:28.939Z,3.80
2023-03-21T05:47:28.873Z,4.10
2023-03-21T05:48:28.860Z,3.70
2023-03-21T05:49:28.869Z,3.80
2023-03-21T05:50:28.870Z,3.60
2023-03-21T05:51:28.862Z,4.20
2023-03-21T05:52:28.852Z,3.90
2023-03-21T05:53:28.810Z,3.60
2023-03-21T05:54:28.866Z,3.60
2023-03-21T05:55:28.805Z,3.60
2023-03-21T05:56:28.793Z,4.20
2023-03-21T05:57:28.843Z,3.90
2023-03-21T05:58:28.902Z,3.80
2023-03-21T05:59:28.823Z,4.00
2023-03-21T06:00:30.469Z,4.10
2023-03-21T06:01:29.799Z,4.50
2023-03-21T06:02:28.838Z,4.20
2023-03-21T06:03:28.813Z,4.00
2023-03-21T06:04:28.765Z,3.90
2023-03-21T06:05:28.795Z,4.30
2023-03-21T06:06:28.715Z,4.10
2023-03-21T06:07:28.759Z,4.40
2023-03-21T06:08:28.681Z,4.00
2023-03-21T06:09:28.708Z,4.10
2023-03-21T06:10:28.693Z,4.10
2023-03-21T06:11:28.713Z,4.00
2023-03-21T06:12:28.624Z,3.80
2023-03-21T06:13:28.792Z,4.10
2023-03-21T06:14:28.668Z,4.00
2023-03-21T06:15:28.649Z,4.20
2023-03-21T06:16:28.665Z,4.20
2023-03-21T06:17:28.585Z,4.20
2023-03-21T06:18:28.602Z,4.60
2023-03-21T06:40:57.437Z,3.30
2023-03-21T06:41:58.752Z,4.40
2023-03-21T06:42:58.599Z,4.60
2023-03-21T06:43:58.487Z,4.80
2023-03-21T06:44:58.525Z,4.60
2023-03-21T06:48:40.418Z,4.80
2023-03-21T06:49:40.521Z,4.50
2023-03-21T06:50:40.546Z,4.90
2023-03-21T06:51:41.868Z,4.70
2023-03-21T06:52:41.637Z,5.30
2023-03-21T06:53:41.635Z,5.10
2023-03-21T06:54:41.668Z,4.90
2023-03-21T06:55:41.563Z,4.90
2023-03-21T06:56:41.531Z,5.10
2023-03-21T06:57:41.565Z,4.60
2023-03-21T06:58:41.548Z,5.20
2023-03-21T06:59:41.594Z,5.20
2023-03-21T07:00:41.509Z,5.10
2023-03-21T07:01:41.526Z,5.20
2023-03-21T07:02:41.778Z,4.90
2023-03-21T07:03:41.469Z,5.00
2023-03-21T07:04:41.632Z,5.10
2023-03-21T07:05:41.451Z,5.10
2023-03-21T07:06:41.461Z,4.90
2023-03-21T07:07:41.455Z,5.00
2023-03-21T07:08:41.455Z,5.00
2023-03-21T07:09:41.419Z,5.00
2023-03-21T07:10:42.268Z,5.30
2023-03-21T07:11:41.387Z,5.00
2023-03-21T07:12:41.569Z,5.30
2023-03-21T07:13:41.390Z,4.90
2023-03-21T07:14:41.915Z,5.20
2023-03-21T07:15:41.362Z,5.30
2023-03-21T07:16:41.410Z,5.40
2023-03-21T07:17:41.336Z,4.90
2023-03-21T07:18:41.329Z,5.00
2023-03-21T07:19:42.743Z,5.30
2023-03-21T07:20:41.302Z,5.10
2023-03-21T07:21:41.305Z,5.20
2023-03-21T07:22:41.289Z,5.30
2023-03-21T07:23:41.772Z,5.30
2023-03-21T07:24:41.348Z,4.90
2023-03-21T07:25:41.609Z,5.10
2023-03-21T07:26:41.248Z,5.30
2023-03-21T07:27:41.568Z,5.40
2023-03-21T07:28:41.266Z,5.10
2023-03-21T07:29:41.263Z,5.40
2023-03-21T07:30:41.205Z,4.90
2023-03-21T07:31:41.225Z,5.30
2023-03-21T07:32:41.195Z,5.30
2023-03-21T07:33:41.165Z,5.20
2023-03-21T07:34:41.170Z,5.30
2023-03-21T07:35:41.736Z,5.50
2023-03-21T07:36:41.144Z,5.00
2023-03-21T07:37:41.114Z,5.50
2023-03-21T07:38:41.244Z,5.20
2023-03-21T07:39:41.207Z,5.60
2023-03-21T07:40:41.201Z,5.10
2023-03-21T07:41:41.081Z,5.20
2023-03-21T07:42:41.292Z,5.50
2023-03-21T07:43:41.108Z,4.90
2023-03-21T07:44:41.129Z,5.40
2023-03-21T07:45:41.455Z,4.90
2023-03-21T07:46:41.049Z,5.10
2023-03-21T07:47:41.130Z,5.20
2023-03-21T07:48:41.025Z,5.20
2023-03-21T07:49:41.096Z,5.10
2023-03-21T07:50:40.999Z,5.50
2023-03-21T07:51:41.050Z,5.00
2023-03-21T07:52:40.989Z,5.40
2023-03-21T07:53:41.084Z,5.40
2023-03-21T07:54:40.975Z,5.10
2023-03-21T07:55:40.937Z,5.30
2023-03-21T07:56:41.948Z,5.10
2023-03-21T07:57:40.940Z,5.60
2023-03-21T07:58:40.929Z,5.20
2023-03-21T07:59:40.922Z,4.90
2023-03-21T08:00:40.926Z,5.80
2023-03-21T08:01:40.868Z,5.00
2023-03-21T08:02:41.067Z,5.00
2023-03-21T08:03:40.934Z,4.70
2023-03-21T08:04:40.926Z,5.10
2023-03-21T08:05:41.532Z,5.00
2023-03-21T08:06:40.856Z,5.10
2023-03-21T08:07:40.829Z,5.30
2023-03-21T08:08:40.828Z,5.30
2023-03-21T08:09:40.861Z,5.30
2023-03-21T08:10:40.819Z,5.00
2023-03-21T08:11:40.780Z,5.70
2023-03-21T08:12:41.434Z,4.70
2023-03-21T08:13:40.774Z,5.10
2023-03-21T08:14:40.848Z,4.90
2023-03-21T08:15:40.758Z,4.80
2023-03-21T08:16:40.816Z,5.40
2023-03-21T08:17:40.846Z,5.10
2023-03-21T08:18:40.701Z,5.00
2023-03-21T08:19:40.802Z,5.10
2023-03-21T08:20:40.798Z,4.90
2023-03-21T08:21:40.723Z,5.20
2023-03-21T08:22:40.675Z,4.80
2023-03-21T08:23:40.720Z,5.10
2023-03-21T08:24:40.674Z,5.40
2023-03-21T08:25:40.633Z,5.30
2023-03-21T08:26:40.809Z,5.10
2023-03-21T08:27:40.623Z,5.20
2023-03-21T08:28:40.819Z,5.70
2023-03-21T08:29:40.645Z,5.10
2023-03-21T08:30:40.670Z,5.00
2023-03-21T08:31:40.593Z,5.40
2023-03-21T08:32:40.687Z,5.20
2023-03-21T08:33:40.649Z,4.90
2023-03-21T08:34:40.600Z,5.10
2023-03-21T08:35:41.402Z,4.60
2023-03-21T08:36:41.513Z,4.90
2023-03-21T08:37:40.718Z,4.90
2023-03-21T08:38:40.512Z,5.20
2023-03-21T08:39:40.574Z,5.00
2023-03-21T08:40:40.548Z,4.60
2023-03-21T08:41:40.528Z,4.90
2023-03-21T08:42:40.553Z,4.70
2023-03-21T08:43:40.497Z,5.20
2023-03-21T08:44:40.512Z,5.10
2023-03-21T08:45:40.607Z,5.30
2023-03-21T08:46:40.526Z,5.10
2023-03-21T08:47:40.549Z,5.30
2023-03-21T08:48:40.434Z,5.10
2023-03-21T08:49:40.551Z,5.20
2023-03-21T08:50:40.475Z,5.40
2023-03-21T08:51:40.397Z,5.40
2023-03-21T08:52:40.389Z,5.20
2023-03-21T08:53:40.403Z,5.20
2023-03-21T08:54:40.399Z,5.70
2023-03-21T08:55:40.496Z,5.60
2023-03-21T08:56:40.475Z,5.30
2023-03-21T08:57:40.327Z,5.70
2023-03-21T08:58:40.340Z,5.10
2023-03-21T08:59:40.354Z,5.00
2023-03-21T09:00:40.334Z,5.50
2023-03-21T09:01:40.358Z,5.40
2023-03-21T09:02:40.299Z,5.70
2023-03-21T09:03:40.399Z,5.60
2023-03-21T09:04:40.419Z,5.80
2023-03-21T09:05:41.264Z,6.00
2023-03-21T09:06:40.280Z,5.50
2023-03-21T09:07:40.276Z,6.00
2023-03-21T09:08:40.227Z,5.50
2023-03-21T09:09:40.278Z,5.60
2023-03-21T09:10:40.242Z,5.60
2023-03-21T09:11:40.176Z,5.80
2023-03-21T09:12:40.162Z,5.20
2023-03-21T09:13:40.241Z,5.70
2023-03-21T09:14:40.168Z,5.60
2023-03-21T09:15:40.526Z,5.70
2023-03-21T09:16:40.913Z,5.40
2023-03-21T09:17:40.163Z,6.00
2023-03-21T09:18:40.181Z,6.40
2023-03-21T09:19:40.149Z,6.10
2023-03-21T09:20:40.171Z,6.10
2023-03-21T09:21:40.626Z,6.50
2023-03-21T09:22:42.437Z,6.30
2023-03-21T09:23:41.304Z,6.00
2023-03-21T09:24:40.106Z,6.40
2023-03-21T09:25:40.479Z,6.20
2023-03-21T09:26:40.081Z,6.10
2023-03-21T09:27:40.036Z,6.10
2023-03-21T09:28:40.765Z,6.50
2023-03-21T09:29:40.033Z,6.20
2023-03-21T09:30:40.053Z,6.00
2023-03-21T09:31:40.076Z,6.00
2023-03-21T09:32:40.021Z,6.60
2023-03-21T09:33:39.988Z,6.20
2023-03-21T09:34:39.985Z,5.70
2023-03-21T09:35:41.411Z,5.80
2023-03-21T09:36:39.965Z,5.80
2023-03-21T09:37:39.930Z,6.00
2023-03-21T09:38:39.975Z,5.70
2023-03-21T09:39:39.929Z,5.90
2023-03-21T09:40:40.049Z,6.30
2023-03-21T09:41:39.888Z,5.70
2023-03-21T09:42:40.783Z,6.30
2023-03-21T09:43:39.930Z,6.90
2023-03-21T09:44:39.893Z,6.00
2023-03-21T09:45:40.038Z,6.10
2023-03-21T09:46:39.896Z,5.80
2023-03-21T09:47:40.058Z,6.10
2023-03-21T09:48:54.239Z,5.60
2023-03-21T09:49:40.820Z,5.60
2023-03-21T09:50:39.850Z,5.70
2023-03-21T09:51:39.788Z,5.30
2023-03-21T09:52:39.821Z,5.90
2023-03-21T09:53:39.833Z,5.70
2023-03-21T09:54:39.803Z,5.60
2023-03-21T09:55:40.147Z,6.00
2023-03-21T09:56:39.784Z,5.20
2023-03-21T09:57:39.735Z,5.60
2023-03-21T09:58:40.158Z,6.10
2023-03-21T09:59:39.737Z,5.00
2023-03-21T10:00:39.797Z,5.60
2023-03-21T10:01:39.685Z,5.10
2023-03-21T10:02:39.721Z,5.60
2023-03-21T10:03:39.692Z,5.30
2023-03-21T10:04:39.759Z,5.20
2023-03-21T10:05:40.061Z,6.00
2023-03-21T10:06:39.679Z,5.40
2023-03-21T10:07:39.659Z,5.20
2023-03-21T10:08:39.626Z,5.70
2023-03-21T10:09:39.645Z,5.00
2023-03-21T10:10:40.012Z,5.40
2023-03-21T10:11:39.571Z,5.40
2023-03-21T10:12:39.574Z,5.00
2023-03-21T10:13:39.617Z,5.30
2023-03-21T10:14:39.617Z,5.00
2023-03-21T10:15:39.780Z,5.10
2023-03-21T10:16:39.567Z,5.10
2023-03-21T10:17:39.540Z,5.00
2023-03-21T10:18:39.517Z,5.10
2023-03-21T10:19:39.579Z,5.40
2023-03-21T10:20:39.528Z,5.10
2023-03-21T10:21:59.792Z,5.70
2023-03-21T10:22:41.511Z,5.10
2023-03-21T10:23:39.455Z,5.10
2023-03-21T10:24:39.470Z,5.10
2023-03-21T10:25:39.719Z,4.50
2023-03-21T10:26:39.605Z,4.70
2023-03-21T10:27:40.081Z,4.60
2023-03-21T10:28:52.157Z,4.70
2023-03-21T10:29:41.400Z,5.00
2023-03-21T10:30:39.425Z,4.70
2023-03-21T10:31:39.487Z,5.10
2023-03-21T10:32:39.525Z,4.80
2023-03-21T10:33:39.420Z,5.40
2023-03-21T10:34:39.348Z,5.20
2023-03-21T10:35:39.932Z,4.80
2023-03-21T10:36:39.328Z,5.10
2023-03-21T10:37:39.320Z,5.60
2023-03-21T10:38:39.313Z,4.90
2023-03-21T10:39:39.299Z,5.20
2023-03-21T10:40:39.330Z,4.80
2023-03-21T10:41:39.291Z,5.10
2023-03-21T10:42:39.331Z,5.40
2023-03-21T10:43:39.216Z,5.30
2023-03-21T10:44:39.325Z,5.00
2023-03-21T10:45:39.727Z,5.50
2023-03-21T10:46:39.706Z,5.40
2023-03-21T10:47:39.618Z,5.30
2023-03-21T10:48:39.351Z,5.30
2023-03-21T10:50:06.520Z,5.50
2023-03-21T10:50:41.227Z,5.50
2023-03-21T10:51:39.252Z,5.40
2023-03-21T10:52:39.216Z,5.30
2023-03-21T10:53:39.514Z,5.30
2023-03-21T10:54:39.183Z,5.70
2023-03-21T10:55:39.502Z,5.60
2023-03-21T10:56:39.364Z,5.40
2023-03-21T10:57:39.145Z,5.70
2023-03-21T10:58:39.133Z,5.80
2023-03-21T10:59:39.102Z,5.80
2023-03-21T11:00:39.117Z,5.40
2023-03-21T11:01:39.147Z,5.90
2023-03-21T11:02:39.127Z,6.20
2023-03-21T11:03:39.174Z,5.40
2023-03-21T11:04:39.088Z,5.50
2023-03-21T11:05:39.220Z,5.50
2023-03-21T11:06:39.043Z,5.30
2023-03-21T11:07:39.054Z,5.20
2023-03-21T11:08:39.071Z,6.00
2023-03-21T11:09:39.062Z,5.60
2023-03-21T11:10:39.124Z,6.00
2023-03-21T11:11:39.114Z,5.80
2023-03-21T11:12:39.157Z,5.70
2023-03-21T11:13:39.002Z,6.00
2023-03-21T11:14:39.026Z,5.90
2023-03-21T11:15:39.284Z,6.00
2023-03-21T11:16:39.839Z,5.50
2023-03-21T11:17:40.145Z,5.70
2023-03-21T11:18:39.062Z,5.80
2023-03-21T11:19:38.955Z,5.40
2023-03-21T11:20:39.456Z,5.70
2023-03-21T11:21:38.892Z,5.50
2023-03-21T11:22:39.068Z,5.90
2023-03-21T11:23:38.954Z,5.70
2023-03-21T11:24:38.953Z,6.30
2023-03-21T11:25:39.068Z,6.20
2023-03-21T11:26:38.849Z,6.20
2023-03-21T11:27:38.825Z,6.00
2023-03-21T11:28:38.876Z,5.80
2023-03-21T11:29:38.843Z,6.10
2023-03-21T11:30:38.915Z,6.50
2023-03-21T11:31:38.912Z,6.30
2023-03-21T11:32:38.867Z,6.90
2023-03-21T11:33:38.793Z,6.80
2023-03-21T11:34:38.753Z,6.90
2023-03-21T11:35:39.077Z,7.30
2023-03-21T11:36:38.770Z,7.90
2023-03-21T11:37:38.712Z,7.20
2023-03-21T11:38:39.461Z,7.60
2023-03-21T11:39:38.825Z,7.00
2023-03-21T11:40:38.757Z,7.00
2023-03-21T11:41:38.717Z,7.40
2023-03-21T11:42:38.755Z,7.50
2023-03-21T11:43:38.699Z,6.80
2023-03-21T11:44:38.672Z,7.00
2023-03-21T11:45:39.197Z,7.20
2023-03-21T11:46:38.687Z,6.90
2023-03-21T11:47:38.738Z,7.20
2023-03-21T11:48:38.641Z,7.50
2023-03-21T11:49:38.745Z,7.50
2023-03-21T11:50:38.644Z,7.10
2023-03-21T11:51:38.604Z,6.80
2023-03-21T11:52:38.611Z,6.70
2023-03-21T11:53:38.604Z,7.00
2023-03-21T11:54:38.697Z,7.40
2023-03-21T11:55:38.831Z,7.00
2023-03-21T11:56:38.577Z,7.00
2023-03-21T11:57:38.584Z,6.80
2023-03-21T11:58:38.638Z,7.30
2023-03-21T11:59:38.481Z,6.40
2023-03-21T12:00:38.569Z,6.80
2023-03-21T12:01:38.511Z,7.40
2023-03-21T12:02:38.558Z,7.60
2023-03-21T12:03:47.811Z,6.90
2023-03-21T12:04:40.594Z,6.70
2023-03-21T12:05:38.772Z,6.30
2023-03-21T12:06:38.540Z,5.90
2023-03-21T12:07:38.454Z,6.60
2023-03-21T12:08:38.526Z,5.70
2023-03-21T12:09:38.463Z,5.70
2023-03-21T12:10:38.479Z,6.00
2023-03-21T12:11:38.621Z,6.30
2023-03-21T12:12:39.653Z,5.60
2023-03-21T12:13:39.557Z,5.70
2023-03-21T12:14:38.432Z,6.20
2023-03-21T12:15:38.672Z,6.20
2023-03-21T12:16:38.458Z,5.90
2023-03-21T12:17:38.371Z,6.90
2023-03-21T12:18:38.373Z,5.50
2023-03-21T12:19:38.378Z,6.30
2023-03-21T12:20:38.395Z,6.10
2023-03-21T12:21:38.439Z,6.60
2023-03-21T12:22:38.273Z,5.70
2023-03-21T12:23:38.393Z,5.70
2023-03-21T12:24:40.756Z,5.80
2023-03-21T12:25:38.625Z,5.80
2023-03-21T12:26:38.223Z,5.90
2023-03-21T12:27:38.237Z,6.10
2023-03-21T12:28:38.236Z,6.40
2023-03-21T12:29:38.247Z,6.10
2023-03-21T12:30:38.248Z,6.10
2023-03-21T12:31:38.262Z,6.00
2023-03-21T12:32:38.965Z,6.10
2023-03-21T12:33:38.354Z,7.00
2023-03-21T12:34:38.152Z,6.60
2023-03-21T12:35:38.585Z,6.20
2023-03-21T12:36:38.185Z,6.10
2023-03-21T12:37:38.112Z,6.30
2023-03-21T12:38:38.165Z,6.60
2023-03-21T12:39:38.214Z,6.40
2023-03-21T12:40:38.102Z,6.00
2023-03-21T12:41:38.154Z,6.70
2023-03-21T12:42:38.122Z,6.30
2023-03-21T12:43:38.072Z,7.10
2023-03-21T12:44:38.121Z,6.40
2023-03-21T12:45:46.517Z,6.80
2023-03-21T12:46:40.125Z,6.40
2023-03-21T12:47:38.228Z,6.30
2023-03-21T12:48:38.100Z,6.40
2023-03-21T12:49:38.066Z,6.80
2023-03-21T12:50:38.014Z,6.30
2023-03-21T12:51:38.071Z,6.30
2023-03-21T12:52:38.064Z,6.30
2023-03-21T12:53:38.001Z,6.10
2023-03-21T12:54:38.128Z,6.70
2023-03-21T12:55:38.310Z,6.80
2023-03-21T12:56:38.008Z,6.20
2023-03-21T12:57:40.185Z,5.70
2023-03-21T12:58:39.064Z,5.50
2023-03-21T12:59:38.041Z,5.20
2023-03-21T13:00:38.244Z,5.60
2023-03-21T13:01:37.953Z,5.90
2023-03-21T13:02:37.943Z,5.30
2023-03-21T13:03:40.596Z,5.50
2023-03-21T13:04:38.930Z,5.60
2023-03-21T13:05:37.858Z,6.20
2023-03-21T13:06:38.021Z,5.50
2023-03-21T13:07:37.860Z,5.80
2023-03-21T13:08:37.879Z,6.70
2023-03-21T13:09:38.418Z,6.00
2023-03-21T13:10:38.069Z,6.20
2023-03-21T13:11:37.811Z,6.30
2023-03-21T13:12:37.872Z,6.80
2023-03-21T13:13:38.403Z,6.50
2023-03-21T13:14:37.719Z,6.80
2023-03-21T13:15:37.737Z,6.60
2023-03-21T13:16:37.818Z,6.80
2023-03-21T13:17:37.810Z,6.20
2023-03-21T13:18:37.710Z,6.80
2023-03-21T13:19:37.708Z,6.40
2023-03-21T13:20:37.993Z,6.60
2023-03-21T13:21:37.736Z,6.10
2023-03-21T13:22:37.655Z,6.40
2023-03-21T13:23:37.719Z,6.60
2023-03-21T13:24:37.652Z,7.20
2023-03-21T13:25:37.740Z,7.20
2023-03-21T13:26:37.653Z,6.70
2023-03-21T13:27:37.622Z,6.90
2023-03-21T13:28:37.602Z,7.10
2023-03-21T13:29:37.785Z,6.40
2023-03-21T13:30:37.995Z,6.50
2023-03-21T13:31:51.043Z,6.50
2023-03-21T13:32:39.625Z,6.50
2023-03-21T13:33:37.622Z,6.30
2023-03-21T13:34:37.529Z,6.60
2023-03-21T13:35:38.003Z,6.90
2023-03-21T13:36:37.645Z,6.90
2023-03-21T13:37:37.497Z,6.80
2023-03-21T13:38:37.497Z,6.40
2023-03-21T13:39:37.503Z,6.70
2023-03-21T13:40:37.996Z,6.20
2023-03-21T13:41:37.554Z,6.90
2023-03-21T13:42:37.564Z,6.20
2023-03-21T13:43:37.544Z,6.70
2023-03-21T13:44:37.464Z,6.60
2023-03-21T13:45:38.579Z,7.20
2023-03-21T13:46:52.149Z,6.90
2023-03-21T13:47:39.510Z,6.50
2023-03-21T13:48:37.631Z,7.30
2023-03-21T13:49:37.420Z,7.30
2023-03-21T13:50:37.376Z,7.40
2023-03-21T13:51:37.412Z,8.10
2023-03-21T13:52:37.460Z,7.90
2023-03-21T13:53:37.349Z,7.80
2023-03-21T13:54:37.350Z,8.10
2023-03-21T13:55:37.903Z,7.00
2023-03-21T13:56:37.382Z,7.10
2023-03-21T13:57:37.338Z,7.40
2023-03-21T13:58:37.303Z,7.30
2023-03-21T13:59:37.320Z,7.70
2023-03-21T14:00:37.260Z,8.40
2023-03-21T14:01:37.405Z,8.50
2023-03-21T14:02:39.444Z,9.10
2023-03-21T14:03:38.246Z,9.80
2023-03-21T14:04:43.362Z,10.00
2023-03-21T14:05:38.566Z,9.90
2023-03-21T14:06:37.833Z,9.80
2023-03-21T14:07:37.213Z,10.90
2023-03-21T14:08:37.959Z,10.00
2023-03-21T14:09:38.225Z,10.20
2023-03-21T14:10:37.241Z,10.90
2023-03-21T14:11:41.942Z,9.70
2023-03-21T14:12:38.152Z,10.40
2023-03-21T14:13:48.352Z,10.90
2023-03-21T14:14:39.141Z,11.70
2023-03-21T14:15:40.926Z,11.40
2023-03-21T14:16:39.177Z,10.70
2023-03-21T14:17:37.119Z,11.70
2023-03-21T14:18:52.850Z,11.60
2023-03-21T14:19:39.094Z,11.70